sensor_id;sensor_type;location;lat;lon;timestamp;temperature;humidity
17341;DHT22;8788;49.930;8.660;2022-07-24T00:01:10;23.20;84.60
17341;DHT22;8788;49.930;8.660;2022-07-24T00:03:37;23.10;84.70
17341;DHT22;8788;49.930;8.660;2022-07-24T00:06:05;23.10;84.90
17341;DHT22;8788;49.930;8.660;2022-07-24T00:08:32;23.10;85.10
17341;DHT22;8788;49.930;8.660;2022-07-24T00:10:59;23.00;85.20
17341;DHT22;8788;49.930;8.660;2022-07-24T00:13:28;23.00;85.50
17341;DHT22;8788;49.930;8.660;2022-07-24T00:15:55;22.90;85.70
17341;DHT22;8788;49.930;8.660;2022-07-24T00:18:22;22.90;85.90
17341;DHT22;8788;49.930;8.660;2022-07-24T00:20:49;22.90;86.10
17341;DHT22;8788;49.930;8.660;2022-07-24T00:23:16;22.90;86.20
17341;DHT22;8788;49.930;8.660;2022-07-24T00:25:43;22.90;86.30
17341;DHT22;8788;49.930;8.660;2022-07-24T00:28:11;22.90;86.40
17341;DHT22;8788;49.930;8.660;2022-07-24T00:30:39;22.90;86.60
17341;DHT22;8788;49.930;8.660;2022-07-24T00:33:06;22.80;86.60
17341;DHT22;8788;49.930;8.660;2022-07-24T00:35:34;22.80;86.70
17341;DHT22;8788;49.930;8.660;2022-07-24T00:38:01;22.80;86.90
17341;DHT22;8788;49.930;8.660;2022-07-24T00:40:29;22.80;86.90
17341;DHT22;8788;49.930;8.660;2022-07-24T00:42:56;22.80;87.20
17341;DHT22;8788;49.930;8.660;2022-07-24T00:45:24;22.70;87.30
17341;DHT22;8788;49.930;8.660;2022-07-24T00:47:52;22.70;87.50
17341;DHT22;8788;49.930;8.660;2022-07-24T00:50:19;22.80;87.60
17341;DHT22;8788;49.930;8.660;2022-07-24T00:52:47;22.70;87.70
17341;DHT22;8788;49.930;8.660;2022-07-24T00:55:14;22.70;87.90
17341;DHT22;8788;49.930;8.660;2022-07-24T00:57:41;22.60;88.20
17341;DHT22;8788;49.930;8.660;2022-07-24T01:00:12;22.60;88.50
17341;DHT22;8788;49.930;8.660;2022-07-24T01:02:40;22.50;88.70
17341;DHT22;8788;49.930;8.660;2022-07-24T01:05:10;22.50;89.00
17341;DHT22;8788;49.930;8.660;2022-07-24T01:07:38;22.40;89.20
17341;DHT22;8788;49.930;8.660;2022-07-24T01:10:06;22.40;89.50
17341;DHT22;8788;49.930;8.660;2022-07-24T01:12:35;22.40;89.70
17341;DHT22;8788;49.930;8.660;2022-07-24T01:15:03;22.40;89.80
17341;DHT22;8788;49.930;8.660;2022-07-24T01:17:32;22.30;89.90
17341;DHT22;8788;49.930;8.660;2022-07-24T01:20:00;22.30;90.00
17341;DHT22;8788;49.930;8.660;2022-07-24T01:22:28;22.30;90.00
17341;DHT22;8788;49.930;8.660;2022-07-24T01:24:56;22.30;90.10
17341;DHT22;8788;49.930;8.660;2022-07-24T01:27:23;22.20;90.10
17341;DHT22;8788;49.930;8.660;2022-07-24T01:29:51;22.10;90.20
17341;DHT22;8788;49.930;8.660;2022-07-24T01:32:18;22.10;90.20
17341;DHT22;8788;49.930;8.660;2022-07-24T01:34:46;22.20;90.20
17341;DHT22;8788;49.930;8.660;2022-07-24T01:37:13;22.20;90.20
17341;DHT22;8788;49.930;8.660;2022-07-24T01:39:41;22.20;90.20
17341;DHT22;8788;49.930;8.660;2022-07-24T01:42:08;22.20;90.20
17341;DHT22;8788;49.930;8.660;2022-07-24T01:44:51;22.20;90.20
17341;DHT22;8788;49.930;8.660;2022-07-24T01:47:18;22.30;90.30
17341;DHT22;8788;49.930;8.660;2022-07-24T01:49:45;22.30;90.20
17341;DHT22;8788;49.930;8.660;2022-07-24T01:52:12;22.20;90.20
17341;DHT22;8788;49.930;8.660;2022-07-24T01:54:41;22.20;90.30
17341;DHT22;8788;49.930;8.660;2022-07-24T01:57:08;22.20;90.40
17341;DHT22;8788;49.930;8.660;2022-07-24T01:59:35;22.20;90.40
17341;DHT22;8788;49.930;8.660;2022-07-24T02:02:03;22.20;90.50
17341;DHT22;8788;49.930;8.660;2022-07-24T02:04:30;22.10;90.50
17341;DHT22;8788;49.930;8.660;2022-07-24T02:06:57;22.10;90.60
17341;DHT22;8788;49.930;8.660;2022-07-24T02:09:24;22.00;90.70
17341;DHT22;8788;49.930;8.660;2022-07-24T02:11:53;22.00;91.10
17341;DHT22;8788;49.930;8.660;2022-07-24T02:14:21;21.90;90.80
17341;DHT22;8788;49.930;8.660;2022-07-24T02:16:48;21.90;90.90
17341;DHT22;8788;49.930;8.660;2022-07-24T02:19:15;21.90;91.00
17341;DHT22;8788;49.930;8.660;2022-07-24T02:21:42;21.90;91.10
17341;DHT22;8788;49.930;8.660;2022-07-24T02:24:09;21.90;91.10
17341;DHT22;8788;49.930;8.660;2022-07-24T02:26:36;21.90;91.10
17341;DHT22;8788;49.930;8.660;2022-07-24T02:29:05;21.90;91.10
17341;DHT22;8788;49.930;8.660;2022-07-24T02:31:32;21.90;91.20
17341;DHT22;8788;49.930;8.660;2022-07-24T02:34:00;21.90;91.20
17341;DHT22;8788;49.930;8.660;2022-07-24T02:36:27;21.90;91.30
17341;DHT22;8788;49.930;8.660;2022-07-24T02:38:54;21.80;91.30
17341;DHT22;8788;49.930;8.660;2022-07-24T02:41:21;21.80;91.30
17341;DHT22;8788;49.930;8.660;2022-07-24T02:43:49;21.80;91.30
17341;DHT22;8788;49.930;8.660;2022-07-24T02:46:17;21.80;91.40
17341;DHT22;8788;49.930;8.660;2022-07-24T02:48:44;21.70;91.40
17341;DHT22;8788;49.930;8.660;2022-07-24T02:51:12;21.70;91.50
17341;DHT22;8788;49.930;8.660;2022-07-24T02:53:39;21.60;91.60
17341;DHT22;8788;49.930;8.660;2022-07-24T02:56:06;21.60;91.80
17341;DHT22;8788;49.930;8.660;2022-07-24T02:58:34;21.50;91.90
17341;DHT22;8788;49.930;8.660;2022-07-24T03:01:01;21.50;92.00
17341;DHT22;8788;49.930;8.660;2022-07-24T03:03:30;21.50;92.00
17341;DHT22;8788;49.930;8.660;2022-07-24T03:05:57;21.50;92.10
17341;DHT22;8788;49.930;8.660;2022-07-24T03:08:24;21.40;92.10
17341;DHT22;8788;49.930;8.660;2022-07-24T03:10:51;21.30;92.30
17341;DHT22;8788;49.930;8.660;2022-07-24T03:13:18;21.20;92.50
17341;DHT22;8788;49.930;8.660;2022-07-24T03:15:45;21.10;92.70
17341;DHT22;8788;49.930;8.660;2022-07-24T03:18:12;21.00;92.90
17341;DHT22;8788;49.930;8.660;2022-07-24T03:20:41;21.00;93.00
17341;DHT22;8788;49.930;8.660;2022-07-24T03:23:08;21.00;93.00
17341;DHT22;8788;49.930;8.660;2022-07-24T03:25:35;21.00;93.00
17341;DHT22;8788;49.930;8.660;2022-07-24T03:28:02;21.00;93.10
17341;DHT22;8788;49.930;8.660;2022-07-24T03:30:29;21.00;93.10
17341;DHT22;8788;49.930;8.660;2022-07-24T03:32:57;21.00;93.20
17341;DHT22;8788;49.930;8.660;2022-07-24T03:35:24;21.00;93.30
17341;DHT22;8788;49.930;8.660;2022-07-24T03:37:52;21.00;93.40
17341;DHT22;8788;49.930;8.660;2022-07-24T03:40:21;20.90;93.40
17341;DHT22;8788;49.930;8.660;2022-07-24T03:42:48;20.90;93.50
17341;DHT22;8788;49.930;8.660;2022-07-24T03:45:15;20.90;93.60
17341;DHT22;8788;49.930;8.660;2022-07-24T03:47:42;20.90;93.70
17341;DHT22;8788;49.930;8.660;2022-07-24T03:50:09;20.90;93.80
17341;DHT22;8788;49.930;8.660;2022-07-24T03:52:36;20.90;93.80
17341;DHT22;8788;49.930;8.660;2022-07-24T03:55:06;20.90;93.90
17341;DHT22;8788;49.930;8.660;2022-07-24T03:57:33;20.90;94.00
17341;DHT22;8788;49.930;8.660;2022-07-24T04:00:00;20.80;94.10
17341;DHT22;8788;49.930;8.660;2022-07-24T04:02:27;20.90;94.30
17341;DHT22;8788;49.930;8.660;2022-07-24T04:04:55;20.90;94.40
17341;DHT22;8788;49.930;8.660;2022-07-24T04:07:22;20.90;94.50
17341;DHT22;8788;49.930;8.660;2022-07-24T04:09:49;20.90;94.60
17341;DHT22;8788;49.930;8.660;2022-07-24T04:12:17;20.80;94.70
17341;DHT22;8788;49.930;8.660;2022-07-24T04:14:44;20.80;94.80
17341;DHT22;8788;49.930;8.660;2022-07-24T04:17:11;20.70;94.90
17341;DHT22;8788;49.930;8.660;2022-07-24T04:19:39;20.70;95.00
17341;DHT22;8788;49.930;8.660;2022-07-24T04:22:06;20.70;95.20
17341;DHT22;8788;49.930;8.660;2022-07-24T04:24:33;20.70;95.20
17341;DHT22;8788;49.930;8.660;2022-07-24T04:27:00;20.80;95.30
17341;DHT22;8788;49.930;8.660;2022-07-24T04:29:28;20.70;95.40
17341;DHT22;8788;49.930;8.660;2022-07-24T04:31:56;20.80;95.40
17341;DHT22;8788;49.930;8.660;2022-07-24T04:34:23;20.80;95.50
17341;DHT22;8788;49.930;8.660;2022-07-24T04:36:50;20.80;95.60
17341;DHT22;8788;49.930;8.660;2022-07-24T04:39:17;20.80;95.80
17341;DHT22;8788;49.930;8.660;2022-07-24T04:41:44;20.80;95.90
17341;DHT22;8788;49.930;8.660;2022-07-24T04:44:11;20.80;96.00
17341;DHT22;8788;49.930;8.660;2022-07-24T04:46:40;20.80;96.00
17341;DHT22;8788;49.930;8.660;2022-07-24T04:49:07;20.80;96.10
17341;DHT22;8788;49.930;8.660;2022-07-24T04:51:34;20.80;96.20
17341;DHT22;8788;49.930;8.660;2022-07-24T04:54:01;20.90;96.30
17341;DHT22;8788;49.930;8.660;2022-07-24T04:56:28;20.80;96.50
17341;DHT22;8788;49.930;8.660;2022-07-24T04:58:58;20.90;96.70
17341;DHT22;8788;49.930;8.660;2022-07-24T05:01:27;20.90;96.80
17341;DHT22;8788;49.930;8.660;2022-07-24T05:03:56;21.00;96.90
17341;DHT22;8788;49.930;8.660;2022-07-24T05:06:24;21.10;97.00
17341;DHT22;8788;49.930;8.660;2022-07-24T05:08:52;21.10;97.10
17341;DHT22;8788;49.930;8.660;2022-07-24T05:11:19;21.20;97.10
17341;DHT22;8788;49.930;8.660;2022-07-24T05:13:46;21.20;96.90
17341;DHT22;8788;49.930;8.660;2022-07-24T05:16:13;21.30;96.90
17341;DHT22;8788;49.930;8.660;2022-07-24T05:18:40;21.30;97.00
17341;DHT22;8788;49.930;8.660;2022-07-24T05:21:08;21.30;97.10
17341;DHT22;8788;49.930;8.660;2022-07-24T05:23:36;21.30;97.10
17341;DHT22;8788;49.930;8.660;2022-07-24T05:26:03;21.30;97.10
17341;DHT22;8788;49.930;8.660;2022-07-24T05:28:30;21.40;97.20
17341;DHT22;8788;49.930;8.660;2022-07-24T05:30:58;21.40;97.20
17341;DHT22;8788;49.930;8.660;2022-07-24T05:33:25;21.40;97.20
17341;DHT22;8788;49.930;8.660;2022-07-24T05:35:52;21.50;97.20
17341;DHT22;8788;49.930;8.660;2022-07-24T05:38:21;21.60;97.20
17341;DHT22;8788;49.930;8.660;2022-07-24T05:40:48;21.70;97.30
17341;DHT22;8788;49.930;8.660;2022-07-24T05:43:15;21.80;97.20
17341;DHT22;8788;49.930;8.660;2022-07-24T05:45:43;21.80;97.10
17341;DHT22;8788;49.930;8.660;2022-07-24T05:48:10;21.90;97.10
17341;DHT22;8788;49.930;8.660;2022-07-24T05:50:37;21.90;97.10
17341;DHT22;8788;49.930;8.660;2022-07-24T05:53:04;22.00;97.10
17341;DHT22;8788;49.930;8.660;2022-07-24T05:55:33;22.00;97.10
17341;DHT22;8788;49.930;8.660;2022-07-24T05:58:00;22.10;97.20
17341;DHT22;8788;49.930;8.660;2022-07-24T06:00:27;22.10;97.10
17341;DHT22;8788;49.930;8.660;2022-07-24T06:02:54;22.20;97.20
17341;DHT22;8788;49.930;8.660;2022-07-24T06:05:22;22.30;97.10
17341;DHT22;8788;49.930;8.660;2022-07-24T06:07:49;22.30;97.10
17341;DHT22;8788;49.930;8.660;2022-07-24T06:10:16;22.40;97.00
17341;DHT22;8788;49.930;8.660;2022-07-24T06:12:44;22.50;96.90
17341;DHT22;8788;49.930;8.660;2022-07-24T06:15:12;22.50;96.90
17341;DHT22;8788;49.930;8.660;2022-07-24T06:17:39;22.60;96.80
17341;DHT22;8788;49.930;8.660;2022-07-24T06:20:08;22.60;96.70
17341;DHT22;8788;49.930;8.660;2022-07-24T06:22:38;22.60;96.80
17341;DHT22;8788;49.930;8.660;2022-07-24T06:25:06;22.70;96.70
17341;DHT22;8788;49.930;8.660;2022-07-24T06:27:33;22.80;96.60
17341;DHT22;8788;49.930;8.660;2022-07-24T06:30:03;22.80;96.60
17341;DHT22;8788;49.930;8.660;2022-07-24T06:32:30;22.90;96.60
17341;DHT22;8788;49.930;8.660;2022-07-24T06:34:57;22.90;96.50
17341;DHT22;8788;49.930;8.660;2022-07-24T06:37:24;23.00;96.50
17341;DHT22;8788;49.930;8.660;2022-07-24T06:39:51;23.10;96.40
17341;DHT22;8788;49.930;8.660;2022-07-24T06:42:18;23.20;96.30
17341;DHT22;8788;49.930;8.660;2022-07-24T06:44:46;23.30;96.20
17341;DHT22;8788;49.930;8.660;2022-07-24T06:47:15;23.30;96.00
17341;DHT22;8788;49.930;8.660;2022-07-24T06:49:42;23.30;96.10
17341;DHT22;8788;49.930;8.660;2022-07-24T06:52:09;23.40;95.90
17341;DHT22;8788;49.930;8.660;2022-07-24T06:54:36;23.50;95.80
17341;DHT22;8788;49.930;8.660;2022-07-24T06:57:03;23.60;95.80
17341;DHT22;8788;49.930;8.660;2022-07-24T06:59:30;23.70;95.80
17341;DHT22;8788;49.930;8.660;2022-07-24T07:01:58;23.80;95.70
17341;DHT22;8788;49.930;8.660;2022-07-24T07:04:26;23.90;95.70
17341;DHT22;8788;49.930;8.660;2022-07-24T07:06:53;24.00;95.60
17341;DHT22;8788;49.930;8.660;2022-07-24T07:09:20;24.10;95.40
17341;DHT22;8788;49.930;8.660;2022-07-24T07:11:48;24.20;95.30
17341;DHT22;8788;49.930;8.660;2022-07-24T07:14:15;24.20;95.20
17341;DHT22;8788;49.930;8.660;2022-07-24T07:16:42;24.30;94.90
17341;DHT22;8788;49.930;8.660;2022-07-24T07:19:09;24.30;94.80
17341;DHT22;8788;49.930;8.660;2022-07-24T07:21:38;24.40;94.70
17341;DHT22;8788;49.930;8.660;2022-07-24T07:24:06;24.40;94.50
17341;DHT22;8788;49.930;8.660;2022-07-24T07:26:33;24.50;94.50
17341;DHT22;8788;49.930;8.660;2022-07-24T07:29:00;24.50;94.30
17341;DHT22;8788;49.930;8.660;2022-07-24T07:31:27;24.50;94.10
17341;DHT22;8788;49.930;8.660;2022-07-24T07:33:54;24.60;94.20
17341;DHT22;8788;49.930;8.660;2022-07-24T07:36:22;24.60;94.10
17341;DHT22;8788;49.930;8.660;2022-07-24T07:38:50;24.70;94.00
17341;DHT22;8788;49.930;8.660;2022-07-24T07:41:17;24.80;94.00
17341;DHT22;8788;49.930;8.660;2022-07-24T07:43:45;24.80;94.00
17341;DHT22;8788;49.930;8.660;2022-07-24T07:46:13;24.90;94.00
17341;DHT22;8788;49.930;8.660;2022-07-24T07:48:41;25.00;93.90
17341;DHT22;8788;49.930;8.660;2022-07-24T07:51:09;25.10;93.80
17341;DHT22;8788;49.930;8.660;2022-07-24T07:53:36;25.20;93.60
17341;DHT22;8788;49.930;8.660;2022-07-24T07:56:05;25.30;93.40
17341;DHT22;8788;49.930;8.660;2022-07-24T07:58:33;25.40;93.40
17341;DHT22;8788;49.930;8.660;2022-07-24T08:01:00;25.50;93.30
17341;DHT22;8788;49.930;8.660;2022-07-24T08:03:27;25.60;93.10
17341;DHT22;8788;49.930;8.660;2022-07-24T08:05:54;25.70;92.90
17341;DHT22;8788;49.930;8.660;2022-07-24T08:08:21;25.70;92.70
17341;DHT22;8788;49.930;8.660;2022-07-24T08:10:48;25.70;92.60
17341;DHT22;8788;49.930;8.660;2022-07-24T08:13:17;25.80;92.50
17341;DHT22;8788;49.930;8.660;2022-07-24T08:15:45;25.90;92.40
17341;DHT22;8788;49.930;8.660;2022-07-24T08:18:12;26.00;91.90
17341;DHT22;8788;49.930;8.660;2022-07-24T08:20:39;26.00;91.80
17341;DHT22;8788;49.930;8.660;2022-07-24T08:23:08;26.00;91.70
17341;DHT22;8788;49.930;8.660;2022-07-24T08:25:35;26.10;91.60
17341;DHT22;8788;49.930;8.660;2022-07-24T08:28:03;26.20;91.30
17341;DHT22;8788;49.930;8.660;2022-07-24T08:30:31;26.30;91.20
17341;DHT22;8788;49.930;8.660;2022-07-24T08:32:58;26.30;91.00
17341;DHT22;8788;49.930;8.660;2022-07-24T08:35:26;26.30;90.90
17341;DHT22;8788;49.930;8.660;2022-07-24T08:37:53;26.40;90.80
17341;DHT22;8788;49.930;8.660;2022-07-24T08:40:20;26.50;90.80
17341;DHT22;8788;49.930;8.660;2022-07-24T08:42:48;26.60;90.60
17341;DHT22;8788;49.930;8.660;2022-07-24T08:45:16;26.70;90.50
17341;DHT22;8788;49.930;8.660;2022-07-24T08:47:45;26.80;90.50
17341;DHT22;8788;49.930;8.660;2022-07-24T09:09:58;27.20;88.40
17341;DHT22;8788;49.930;8.660;2022-07-24T09:12:30;27.40;88.50
17341;DHT22;8788;49.930;8.660;2022-07-24T09:14:59;27.50;87.70
17341;DHT22;8788;49.930;8.660;2022-07-24T09:17:27;27.60;87.90
17341;DHT22;8788;49.930;8.660;2022-07-24T09:19:56;27.60;86.30
17341;DHT22;8788;49.930;8.660;2022-07-24T09:22:41;27.60;85.20
17341;DHT22;8788;49.930;8.660;2022-07-24T09:25:13;27.80;85.00
17341;DHT22;8788;49.930;8.660;2022-07-24T09:27:49;27.80;85.10
17341;DHT22;8788;49.930;8.660;2022-07-24T09:30:24;27.90;85.30
17341;DHT22;8788;49.930;8.660;2022-07-24T09:32:52;28.00;84.90
17341;DHT22;8788;49.930;8.660;2022-07-24T09:35:23;28.10;84.50
17341;DHT22;8788;49.930;8.660;2022-07-24T09:37:56;28.20;84.40
17341;DHT22;8788;49.930;8.660;2022-07-24T09:40:30;28.30;83.60
17341;DHT22;8788;49.930;8.660;2022-07-24T09:43:15;28.40;82.70
17341;DHT22;8788;49.930;8.660;2022-07-24T09:45:58;28.30;81.30
17341;DHT22;8788;49.930;8.660;2022-07-24T09:48:27;28.20;81.20
17341;DHT22;8788;49.930;8.660;2022-07-24T09:50:56;28.30;81.10
17341;DHT22;8788;49.930;8.660;2022-07-24T09:53:24;28.40;80.60
17341;DHT22;8788;49.930;8.660;2022-07-24T09:56:04;28.50;80.60
17341;DHT22;8788;49.930;8.660;2022-07-24T09:58:34;28.60;80.30
17341;DHT22;8788;49.930;8.660;2022-07-24T10:01:04;28.70;80.20
17341;DHT22;8788;49.930;8.660;2022-07-24T10:03:33;28.90;80.40
17341;DHT22;8788;49.930;8.660;2022-07-24T10:06:02;29.00;80.30
17341;DHT22;8788;49.930;8.660;2022-07-24T10:08:30;29.00;80.00
17341;DHT22;8788;49.930;8.660;2022-07-24T10:10:58;29.20;79.90
17341;DHT22;8788;49.930;8.660;2022-07-24T10:13:28;29.30;79.30
17341;DHT22;8788;49.930;8.660;2022-07-24T10:16:11;29.30;78.40
17341;DHT22;8788;49.930;8.660;2022-07-24T10:18:46;29.20;78.10
17341;DHT22;8788;49.930;8.660;2022-07-24T10:21:16;29.30;78.60
17341;DHT22;8788;49.930;8.660;2022-07-24T10:27:02;29.60;78.30
17341;DHT22;8788;49.930;8.660;2022-07-24T10:29:33;29.70;78.10
17341;DHT22;8788;49.930;8.660;2022-07-24T10:32:01;29.70;77.70
17341;DHT22;8788;49.930;8.660;2022-07-24T10:34:33;29.80;77.70
17341;DHT22;8788;49.930;8.660;2022-07-24T10:37:09;29.90;77.50
17341;DHT22;8788;49.930;8.660;2022-07-24T10:39:47;29.90;77.10
17341;DHT22;8788;49.930;8.660;2022-07-24T10:42:17;29.80;76.90
17341;DHT22;8788;49.930;8.660;2022-07-24T10:45:15;29.90;77.20
17341;DHT22;8788;49.930;8.660;2022-07-24T10:47:43;30.20;76.80
17341;DHT22;8788;49.930;8.660;2022-07-24T10:50:11;30.30;76.30
17341;DHT22;8788;49.930;8.660;2022-07-24T10:52:40;30.30;75.90
17341;DHT22;8788;49.930;8.660;2022-07-24T10:55:24;30.30;75.60
17341;DHT22;8788;49.930;8.660;2022-07-24T10:57:57;30.30;75.00
17341;DHT22;8788;49.930;8.660;2022-07-24T11:00:30;30.20;74.80
17341;DHT22;8788;49.930;8.660;2022-07-24T11:03:00;30.00;74.80
17341;DHT22;8788;49.930;8.660;2022-07-24T11:05:33;29.80;74.90
17341;DHT22;8788;49.930;8.660;2022-07-24T11:11:10;29.80;75.10
17341;DHT22;8788;49.930;8.660;2022-07-24T11:13:45;29.90;74.50
17341;DHT22;8788;49.930;8.660;2022-07-24T11:19:27;30.20;73.00
17341;DHT22;8788;49.930;8.660;2022-07-24T11:22:11;30.30;72.90
17341;DHT22;8788;49.930;8.660;2022-07-24T11:27:24;30.40;72.70
17341;DHT22;8788;49.930;8.660;2022-07-24T11:29:52;30.30;72.10
17341;DHT22;8788;49.930;8.660;2022-07-24T11:32:22;30.40;72.20
17341;DHT22;8788;49.930;8.660;2022-07-24T11:34:54;30.40;72.60
17341;DHT22;8788;49.930;8.660;2022-07-24T11:37:22;30.50;72.80
17341;DHT22;8788;49.930;8.660;2022-07-24T11:39:50;30.70;72.30
17341;DHT22;8788;49.930;8.660;2022-07-24T11:42:17;30.80;71.80
17341;DHT22;8788;49.930;8.660;2022-07-24T11:44:46;30.80;70.90
17341;DHT22;8788;49.930;8.660;2022-07-24T11:47:17;30.80;70.70
17341;DHT22;8788;49.930;8.660;2022-07-24T11:49:48;30.80;70.20
17341;DHT22;8788;49.930;8.660;2022-07-24T11:52:18;30.80;70.60
17341;DHT22;8788;49.930;8.660;2022-07-24T11:54:47;30.80;70.20
17341;DHT22;8788;49.930;8.660;2022-07-24T11:57:22;30.80;69.30
17341;DHT22;8788;49.930;8.660;2022-07-24T11:59:51;30.80;69.10
17341;DHT22;8788;49.930;8.660;2022-07-24T12:02:19;30.80;68.60
17341;DHT22;8788;49.930;8.660;2022-07-24T12:04:50;30.80;68.70
17341;DHT22;8788;49.930;8.660;2022-07-24T12:07:19;30.80;67.90
17341;DHT22;8788;49.930;8.660;2022-07-24T12:09:48;30.90;68.70
17341;DHT22;8788;49.930;8.660;2022-07-24T12:12:20;31.10;68.40
17341;DHT22;8788;49.930;8.660;2022-07-24T12:14:48;31.10;68.10
17341;DHT22;8788;49.930;8.660;2022-07-24T12:17:17;31.20;68.10
17341;DHT22;8788;49.930;8.660;2022-07-24T12:19:52;31.10;67.70
17341;DHT22;8788;49.930;8.660;2022-07-24T12:22:20;31.10;68.00
17341;DHT22;8788;49.930;8.660;2022-07-24T12:24:49;31.20;67.10
17341;DHT22;8788;49.930;8.660;2022-07-24T12:27:36;31.20;67.40
17341;DHT22;8788;49.930;8.660;2022-07-24T12:30:15;31.10;66.60
17341;DHT22;8788;49.930;8.660;2022-07-24T12:32:53;31.00;67.40
17341;DHT22;8788;49.930;8.660;2022-07-24T12:35:22;31.00;67.80
17341;DHT22;8788;49.930;8.660;2022-07-24T12:37:51;30.90;67.60
17341;DHT22;8788;49.930;8.660;2022-07-24T12:40:32;30.80;67.70
17341;DHT22;8788;49.930;8.660;2022-07-24T12:43:06;30.90;68.40
17341;DHT22;8788;49.930;8.660;2022-07-24T12:45:34;31.00;67.30
17341;DHT22;8788;49.930;8.660;2022-07-24T12:48:16;31.10;67.50
17341;DHT22;8788;49.930;8.660;2022-07-24T12:51:06;31.40;67.10
17341;DHT22;8788;49.930;8.660;2022-07-24T12:53:37;31.60;66.10
17341;DHT22;8788;49.930;8.660;2022-07-24T12:56:10;31.70;66.00
17341;DHT22;8788;49.930;8.660;2022-07-24T12:58:54;31.80;66.00
17341;DHT22;8788;49.930;8.660;2022-07-24T13:01:24;31.90;65.50
17341;DHT22;8788;49.930;8.660;2022-07-24T13:03:54;32.00;64.80
17341;DHT22;8788;49.930;8.660;2022-07-24T13:06:38;32.00;64.90
17341;DHT22;8788;49.930;8.660;2022-07-24T13:09:08;32.20;65.00
17341;DHT22;8788;49.930;8.660;2022-07-24T13:11:36;32.30;64.30
17341;DHT22;8788;49.930;8.660;2022-07-24T13:14:05;32.30;63.60
17341;DHT22;8788;49.930;8.660;2022-07-24T13:16:34;32.30;63.60
17341;DHT22;8788;49.930;8.660;2022-07-24T13:19:03;32.30;63.40
17341;DHT22;8788;49.930;8.660;2022-07-24T13:21:30;32.40;63.60
17341;DHT22;8788;49.930;8.660;2022-07-24T13:23:59;32.50;63.50
17341;DHT22;8788;49.930;8.660;2022-07-24T13:26:26;32.50;62.30
17341;DHT22;8788;49.930;8.660;2022-07-24T13:28:53;32.50;62.10
17341;DHT22;8788;49.930;8.660;2022-07-24T13:31:21;32.40;61.10
17341;DHT22;8788;49.930;8.660;2022-07-24T13:33:48;32.40;61.20
17341;DHT22;8788;49.930;8.660;2022-07-24T13:36:16;32.40;61.30
17341;DHT22;8788;49.930;8.660;2022-07-24T13:38:46;32.50;61.50
17341;DHT22;8788;49.930;8.660;2022-07-24T13:41:15;32.60;60.60
17341;DHT22;8788;49.930;8.660;2022-07-24T13:43:47;32.70;60.50
17341;DHT22;8788;49.930;8.660;2022-07-24T13:46:14;32.80;60.20
17341;DHT22;8788;49.930;8.660;2022-07-24T13:48:42;32.70;59.90
17341;DHT22;8788;49.930;8.660;2022-07-24T13:51:10;32.80;60.20
17341;DHT22;8788;49.930;8.660;2022-07-24T13:53:37;32.90;60.30
17341;DHT22;8788;49.930;8.660;2022-07-24T13:56:05;33.00;60.00
17341;DHT22;8788;49.930;8.660;2022-07-24T13:58:34;33.00;59.00
17341;DHT22;8788;49.930;8.660;2022-07-24T14:01:04;32.90;58.60
17341;DHT22;8788;49.930;8.660;2022-07-24T14:03:31;32.80;58.90
17341;DHT22;8788;49.930;8.660;2022-07-24T14:05:59;32.90;58.60
17341;DHT22;8788;49.930;8.660;2022-07-24T14:08:27;32.90;58.70
17341;DHT22;8788;49.930;8.660;2022-07-24T14:10:55;33.00;58.50
17341;DHT22;8788;49.930;8.660;2022-07-24T14:13:22;33.10;58.60
17341;DHT22;8788;49.930;8.660;2022-07-24T14:15:50;33.10;58.20
17341;DHT22;8788;49.930;8.660;2022-07-24T14:18:17;33.00;58.40
17341;DHT22;8788;49.930;8.660;2022-07-24T14:20:45;33.00;57.90
17341;DHT22;8788;49.930;8.660;2022-07-24T14:23:12;33.00;57.80
17341;DHT22;8788;49.930;8.660;2022-07-24T14:25:39;33.10;58.30
17341;DHT22;8788;49.930;8.660;2022-07-24T14:28:06;33.20;58.20
17341;DHT22;8788;49.930;8.660;2022-07-24T14:30:34;33.40;58.40
17341;DHT22;8788;49.930;8.660;2022-07-24T14:33:02;33.60;58.30
17341;DHT22;8788;49.930;8.660;2022-07-24T14:35:29;33.60;57.90
17341;DHT22;8788;49.930;8.660;2022-07-24T14:37:58;33.60;57.60
17341;DHT22;8788;49.930;8.660;2022-07-24T14:40:25;33.70;57.60
17341;DHT22;8788;49.930;8.660;2022-07-24T14:42:52;33.60;56.40
17341;DHT22;8788;49.930;8.660;2022-07-24T14:45:20;33.40;57.00
17341;DHT22;8788;49.930;8.660;2022-07-24T14:47:47;33.50;57.30
17341;DHT22;8788;49.930;8.660;2022-07-24T14:50:16;33.50;57.20
17341;DHT22;8788;49.930;8.660;2022-07-24T14:52:43;33.60;56.00
17341;DHT22;8788;49.930;8.660;2022-07-24T14:55:10;33.60;56.80
17341;DHT22;8788;49.930;8.660;2022-07-24T14:57:37;33.60;56.40
17341;DHT22;8788;49.930;8.660;2022-07-24T15:00:06;33.60;56.40
17341;DHT22;8788;49.930;8.660;2022-07-24T15:02:33;33.70;56.50
17341;DHT22;8788;49.930;8.660;2022-07-24T15:05:00;33.80;56.30
17341;DHT22;8788;49.930;8.660;2022-07-24T15:07:29;33.90;56.30
17341;DHT22;8788;49.930;8.660;2022-07-24T15:09:56;34.00;56.50
17341;DHT22;8788;49.930;8.660;2022-07-24T15:12:23;34.10;57.00
17341;DHT22;8788;49.930;8.660;2022-07-24T15:14:50;34.20;56.30
17341;DHT22;8788;49.930;8.660;2022-07-24T15:17:18;34.30;56.40
17341;DHT22;8788;49.930;8.660;2022-07-24T15:19:45;34.40;56.30
17341;DHT22;8788;49.930;8.660;2022-07-24T15:22:12;34.40;56.00
17341;DHT22;8788;49.930;8.660;2022-07-24T15:24:41;34.40;56.00
17341;DHT22;8788;49.930;8.660;2022-07-24T15:27:08;34.40;55.70
17341;DHT22;8788;49.930;8.660;2022-07-24T15:29:35;34.30;55.40
17341;DHT22;8788;49.930;8.660;2022-07-24T15:32:02;34.10;55.50
17341;DHT22;8788;49.930;8.660;2022-07-24T15:34:29;33.90;55.30
17341;DHT22;8788;49.930;8.660;2022-07-24T15:36:56;33.90;55.50
17341;DHT22;8788;49.930;8.660;2022-07-24T15:39:24;33.90;55.70
17341;DHT22;8788;49.930;8.660;2022-07-24T15:41:52;33.90;55.50
17341;DHT22;8788;49.930;8.660;2022-07-24T15:44:20;33.90;56.10
17341;DHT22;8788;49.930;8.660;2022-07-24T15:46:47;33.90;55.80
17341;DHT22;8788;49.930;8.660;2022-07-24T15:49:14;34.00;55.60
17341;DHT22;8788;49.930;8.660;2022-07-24T15:51:41;34.00;55.70
17341;DHT22;8788;49.930;8.660;2022-07-24T15:54:09;33.90;55.90
17341;DHT22;8788;49.930;8.660;2022-07-24T15:56:37;33.90;56.00
17341;DHT22;8788;49.930;8.660;2022-07-24T15:59:06;34.00;55.80
17341;DHT22;8788;49.930;8.660;2022-07-24T16:01:33;34.00;55.50
17341;DHT22;8788;49.930;8.660;2022-07-24T16:04:00;34.00;55.50
17341;DHT22;8788;49.930;8.660;2022-07-24T16:06:27;34.00;55.70
17341;DHT22;8788;49.930;8.660;2022-07-24T16:08:55;34.00;55.50
17341;DHT22;8788;49.930;8.660;2022-07-24T16:11:22;33.90;54.90
17341;DHT22;8788;49.930;8.660;2022-07-24T16:13:49;33.70;54.80
17341;DHT22;8788;49.930;8.660;2022-07-24T16:16:18;33.50;54.80
17341;DHT22;8788;49.930;8.660;2022-07-24T16:18:45;33.50;55.20
17341;DHT22;8788;49.930;8.660;2022-07-24T16:21:12;33.60;55.70
17341;DHT22;8788;49.930;8.660;2022-07-24T16:23:39;33.70;55.60
17341;DHT22;8788;49.930;8.660;2022-07-24T16:26:06;33.70;55.50